sensor_id;sensor_type;location;lat;lon;timestamp;pressure;altitude;pressure_sealevel;temperature;humidity
53550;BME280;67273;52.914;-0.982;2023-02-26T00:00:28;102122.09;;;17.24;41.33
53550;BME280;67273;52.914;-0.982;2023-02-26T00:02:54;102121.44;;;17.22;41.04
53550;BME280;67273;52.914;-0.982;2023-02-26T00:05:20;102117.03;;;17.21;40.95
53550;BME280;67273;52.914;-0.982;2023-02-26T00:07:46;102127.91;;;17.21;41.34
53550;BME280;67273;52.914;-0.982;2023-02-26T00:10:13;102127.25;;;17.19;41.35
53550;BME280;67273;52.914;-0.982;2023-02-26T00:12:41;102126.63;;;17.17;41.06
53550;BME280;67273;52.914;-0.982;2023-02-26T00:15:09;102125.97;;;17.15;41.04
53550;BME280;67273;52.914;-0.982;2023-02-26T00:17:42;102124.28;;;17.14;41.08
53550;BME280;67273;52.914;-0.982;2023-02-26T00:20:11;102134.31;;;17.14;41.25
53550;BME280;67273;52.914;-0.982;2023-02-26T00:22:37;102123.63;;;17.12;41.30
53550;BME280;67273;52.914;-0.982;2023-02-26T00:25:03;102126.53;;;17.10;41.72
53550;BME280;67273;52.914;-0.982;2023-02-26T00:27:29;102120.28;;;17.10;41.52
53550;BME280;67273;52.914;-0.982;2023-02-26T00:29:56;102126.75;;;17.09;41.25
53550;BME280;67273;52.914;-0.982;2023-02-26T00:32:22;102131.50;;;17.07;41.10
53550;BME280;67273;52.914;-0.982;2023-02-26T00:34:50;102142.38;;;17.07;41.01
53550;BME280;67273;52.914;-0.982;2023-02-26T00:37:26;102146.16;;;17.06;41.13
53550;BME280;67273;52.914;-0.982;2023-02-26T00:40:01;102140.06;;;17.04;41.24
53550;BME280;67273;52.914;-0.982;2023-02-26T00:42:31;102147.53;;;17.02;41.17
53550;BME280;67273;52.914;-0.982;2023-02-26T00:44:57;102142.09;;;17.02;41.29
53550;BME280;67273;52.914;-0.982;2023-02-26T00:47:28;102145.88;;;17.01;41.25
53550;BME280;67273;52.914;-0.982;2023-02-26T00:50:06;102148.59;;;17.01;41.58
53550;BME280;67273;52.914;-0.982;2023-02-26T00:52:42;102150.03;;;16.97;41.35
53550;BME280;67273;52.914;-0.982;2023-02-26T00:55:09;102148.97;;;16.98;41.19
53550;BME280;67273;52.914;-0.982;2023-02-26T00:57:35;102153.75;;;16.96;41.31
53550;BME280;67273;52.914;-0.982;2023-02-26T01:00:01;102142.91;;;16.96;41.32
53550;BME280;67273;52.914;-0.982;2023-02-26T01:02:31;102144.13;;;16.93;41.40
53550;BME280;67273;52.914;-0.982;2023-02-26T01:04:57;102144.97;;;16.94;41.48
53550;BME280;67273;52.914;-0.982;2023-02-26T01:07:25;102145.97;;;16.92;41.27
53550;BME280;67273;52.914;-0.982;2023-02-26T01:09:53;102135.31;;;16.91;41.51
53550;BME280;67273;52.914;-0.982;2023-02-26T01:12:19;102140.97;;;16.89;41.40
53550;BME280;67273;52.914;-0.982;2023-02-26T01:14:45;102139.91;;;16.90;41.13
53550;BME280;67273;52.914;-0.982;2023-02-26T01:17:18;102145.72;;;16.87;41.30
53550;BME280;67273;52.914;-0.982;2023-02-26T01:19:50;102153.84;;;16.87;41.46
53550;BME280;67273;52.914;-0.982;2023-02-26T01:22:20;102153.03;;;16.87;41.60
53550;BME280;67273;52.914;-0.982;2023-02-26T01:24:53;102147.59;;;16.87;41.63
53550;BME280;67273;52.914;-0.982;2023-02-26T01:27:21;102153.22;;;16.85;41.41
53550;BME280;67273;52.914;-0.982;2023-02-26T01:29:47;102153.22;;;16.85;41.27
53550;BME280;67273;52.914;-0.982;2023-02-26T01:32:17;102154.41;;;16.83;41.54
53550;BME280;67273;52.914;-0.982;2023-02-26T01:34:47;102153.56;;;16.82;41.44
53550;BME280;67273;52.914;-0.982;2023-02-26T01:37:22;102151.88;;;16.81;41.56
53550;BME280;67273;52.914;-0.982;2023-02-26T01:42:43;102155.81;;;16.79;41.56
53550;BME280;67273;52.914;-0.982;2023-02-26T01:45:13;102159.38;;;16.79;41.57
53550;BME280;67273;52.914;-0.982;2023-02-26T01:47:46;102165.84;;;16.78;41.37
53550;BME280;67273;52.914;-0.982;2023-02-26T01:50:15;102167.91;;;16.76;41.32
53550;BME280;67273;52.914;-0.982;2023-02-26T01:55:50;102176.03;;;16.76;41.34
53550;BME280;67273;52.914;-0.982;2023-02-26T01:58:18;102183.53;;;16.74;41.40
53550;BME280;67273;52.914;-0.982;2023-02-26T02:00:45;102182.88;;;16.72;41.52
53550;BME280;67273;52.914;-0.982;2023-02-26T02:03:11;102174.75;;;16.72;41.66
53550;BME280;67273;52.914;-0.982;2023-02-26T02:05:40;102174.94;;;16.70;41.40
53550;BME280;67273;52.914;-0.982;2023-02-26T02:08:07;102173.22;;;16.69;41.43
53550;BME280;67273;52.914;-0.982;2023-02-26T02:10:33;102175.94;;;16.69;41.63
53550;BME280;67273;52.914;-0.982;2023-02-26T02:13:04;102169.88;;;16.67;41.77
53550;BME280;67273;52.914;-0.982;2023-02-26T02:15:40;102177.19;;;16.67;41.54
53550;BME280;67273;52.914;-0.982;2023-02-26T02:18:15;102176.34;;;16.66;41.65
53550;BME280;67273;52.914;-0.982;2023-02-26T02:20:58;102180.06;;;16.65;41.62
53550;BME280;67273;52.914;-0.982;2023-02-26T02:23:38;102191.75;;;16.66;41.32
53550;BME280;67273;52.914;-0.982;2023-02-26T02:26:25;102189.25;;;16.64;41.47
53550;BME280;67273;52.914;-0.982;2023-02-26T02:32:08;102188.78;;;16.61;41.74
53550;BME280;67273;52.914;-0.982;2023-02-26T02:34:38;102193.38;;;16.60;41.51
53550;BME280;67273;52.914;-0.982;2023-02-26T02:37:11;102188.78;;;16.61;41.54
53550;BME280;67273;52.914;-0.982;2023-02-26T02:39:42;102191.66;;;16.59;41.62
53550;BME280;67273;52.914;-0.982;2023-02-26T02:42:19;102185.41;;;16.59;41.44
53550;BME280;67273;52.914;-0.982;2023-02-26T02:44:50;102193.72;;;16.57;41.48
53550;BME280;67273;52.914;-0.982;2023-02-26T02:47:24;102192.91;;;16.57;41.75
53550;BME280;67273;52.914;-0.982;2023-02-26T02:49:55;102195.78;;;16.55;41.44
53550;BME280;67273;52.914;-0.982;2023-02-26T02:52:28;102200.41;;;16.54;41.73
53550;BME280;67273;52.914;-0.982;2023-02-26T02:54:58;102206.84;;;16.53;41.69
53550;BME280;67273;52.914;-0.982;2023-02-26T02:57:31;102208.72;;;16.53;41.77
53550;BME280;67273;52.914;-0.982;2023-02-26T03:00:03;102201.59;;;16.52;41.93
53550;BME280;67273;52.914;-0.982;2023-02-26T03:02:37;102208.91;;;16.51;41.47
53550;BME280;67273;52.914;-0.982;2023-02-26T03:05:05;102198.03;;;16.51;41.89
53550;BME280;67273;52.914;-0.982;2023-02-26T03:07:33;102209.94;;;16.50;41.91
53550;BME280;67273;52.914;-0.982;2023-02-26T03:10:00;102207.41;;;16.49;41.72
53550;BME280;67273;52.914;-0.982;2023-02-26T03:12:30;102199.47;;;16.47;41.49
53550;BME280;67273;52.914;-0.982;2023-02-26T03:14:56;102203.19;;;16.46;41.78
53550;BME280;67273;52.914;-0.982;2023-02-26T03:17:26;102208.63;;;16.46;41.80
53550;BME280;67273;52.914;-0.982;2023-02-26T03:20:02;102208.63;;;16.46;41.83
53550;BME280;67273;52.914;-0.982;2023-02-26T03:22:42;102210.69;;;16.44;41.48
53550;BME280;67273;52.914;-0.982;2023-02-26T03:25:23;102209.84;;;16.44;41.66
53550;BME280;67273;52.914;-0.982;2023-02-26T03:28:03;102219.00;;;16.43;41.91
53550;BME280;67273;52.914;-0.982;2023-02-26T03:30:36;102211.91;;;16.42;41.75
53550;BME280;67273;52.914;-0.982;2023-02-26T03:33:09;102218.53;;;16.39;41.51
53550;BME280;67273;52.914;-0.982;2023-02-26T03:35:46;102226.66;;;16.39;41.68
53550;BME280;67273;52.914;-0.982;2023-02-26T03:38:23;102229.38;;;16.39;41.83
53550;BME280;67273;52.914;-0.982;2023-02-26T03:40:54;102221.25;;;16.39;41.63
53550;BME280;67273;52.914;-0.982;2023-02-26T03:43:26;102220.59;;;16.37;41.85
53550;BME280;67273;52.914;-0.982;2023-02-26T03:45:57;102225.19;;;16.37;41.84
53550;BME280;67273;52.914;-0.982;2023-02-26T03:48:26;102220.78;;;16.35;41.66
53550;BME280;67273;52.914;-0.982;2023-02-26T03:51:02;102224.31;;;16.36;41.72
53550;BME280;67273;52.914;-0.982;2023-02-26T03:53:42;102230.78;;;16.35;41.85
53550;BME280;67273;52.914;-0.982;2023-02-26T03:56:18;102231.81;;;16.34;41.56
53550;BME280;67273;52.914;-0.982;2023-02-26T03:58:49;102224.72;;;16.33;41.65
53550;BME280;67273;52.914;-0.982;2023-02-26T04:01:42;102223.84;;;16.32;41.72
53550;BME280;67273;52.914;-0.982;2023-02-26T04:04:14;102233.84;;;16.32;41.62
53550;BME280;67273;52.914;-0.982;2023-02-26T04:06:43;102233.03;;;16.31;41.86
53550;BME280;67273;52.914;-0.982;2023-02-26T04:09:10;102242.19;;;16.30;41.61
53550;BME280;67273;52.914;-0.982;2023-02-26T04:11:37;102244.06;;;16.30;42.06
53550;BME280;67273;52.914;-0.982;2023-02-26T04:14:03;102239.66;;;16.29;41.67
53550;BME280;67273;52.914;-0.982;2023-02-26T04:16:34;102246.13;;;16.28;41.69
53550;BME280;67273;52.914;-0.982;2023-02-26T04:19:00;102246.13;;;16.28;42.02
53550;BME280;67273;52.914;-0.982;2023-02-26T04:21:26;102254.25;;;16.28;41.70
53550;BME280;67273;52.914;-0.982;2023-02-26T04:23:54;102257.16;;;16.26;41.88
53550;BME280;67273;52.914;-0.982;2023-02-26T04:26:20;102257.31;;;16.25;41.90
53550;BME280;67273;52.914;-0.982;2023-02-26T04:28:46;102263.78;;;16.24;41.63
53550;BME280;67273;52.914;-0.982;2023-02-26T04:31:12;102262.09;;;16.23;41.99
53550;BME280;67273;52.914;-0.982;2023-02-26T04:33:39;102262.09;;;16.23;41.91
53550;BME280;67273;52.914;-0.982;2023-02-26T04:36:06;102267.53;;;16.23;41.55
53550;BME280;67273;52.914;-0.982;2023-02-26T04:38:32;102266.69;;;16.22;41.89
53550;BME280;67273;52.914;-0.982;2023-02-26T04:40:59;102271.25;;;16.22;41.85
53550;BME280;67273;52.914;-0.982;2023-02-26T04:43:25;102270.41;;;16.21;41.65
53550;BME280;67273;52.914;-0.982;2023-02-26T04:46:06;102265.16;;;16.20;42.04
53550;BME280;67273;52.914;-0.982;2023-02-26T04:48:34;102273.31;;;16.20;41.67
53550;BME280;67273;52.914;-0.982;2023-02-26T04:51:00;102274.34;;;16.19;41.66
53550;BME280;67273;52.914;-0.982;2023-02-26T04:53:26;102288.09;;;16.17;41.91
53550;BME280;67273;52.914;-0.982;2023-02-26T04:55:51;102283.66;;;16.16;41.74
53550;BME280;67273;52.914;-0.982;2023-02-26T04:58:19;102283.66;;;16.16;42.05
53550;BME280;67273;52.914;-0.982;2023-02-26T05:00:47;102274.69;;;16.15;41.55
53550;BME280;67273;52.914;-0.982;2023-02-26T05:03:13;102284.72;;;16.15;41.94
53550;BME280;67273;52.914;-0.982;2023-02-26T05:05:38;102288.44;;;16.14;41.82
53550;BME280;67273;52.914;-0.982;2023-02-26T05:08:05;102296.56;;;16.14;42.13
53550;BME280;67273;52.914;-0.982;2023-02-26T05:10:31;102286.94;;;16.11;41.76
53550;BME280;67273;52.914;-0.982;2023-02-26T05:12:56;102294.03;;;16.12;41.76
53550;BME280;67273;52.914;-0.982;2023-02-26T05:15:23;102294.22;;;16.11;41.67
53550;BME280;67273;52.914;-0.982;2023-02-26T05:17:49;102288.78;;;16.11;41.66
53550;BME280;67273;52.914;-0.982;2023-02-26T05:20:15;102296.09;;;16.10;41.83
53550;BME280;67273;52.914;-0.982;2023-02-26T05:22:41;102298.16;;;16.08;41.81
53550;BME280;67273;52.914;-0.982;2023-02-26T05:25:09;102302.75;;;16.08;41.73
53550;BME280;67273;52.914;-0.982;2023-02-26T05:27:36;102300.22;;;16.06;41.81
53550;BME280;67273;52.914;-0.982;2023-02-26T05:30:03;102308.34;;;16.06;41.80
53550;BME280;67273;52.914;-0.982;2023-02-26T05:32:31;102305.63;;;16.06;42.03
53550;BME280;67273;52.914;-0.982;2023-02-26T05:34:57;102305.63;;;16.06;42.10
53550;BME280;67273;52.914;-0.982;2023-02-26T05:37:23;102304.75;;;16.06;42.20
53550;BME280;67273;52.914;-0.982;2023-02-26T05:39:49;102313.09;;;16.04;42.19
53550;BME280;67273;52.914;-0.982;2023-02-26T05:42:14;102310.41;;;16.04;41.67
53550;BME280;67273;52.914;-0.982;2023-02-26T05:44:40;102323.25;;;16.02;41.87
53550;BME280;67273;52.914;-0.982;2023-02-26T05:47:06;102327.84;;;16.02;42.00
53550;BME280;67273;52.914;-0.982;2023-02-26T05:49:33;102316.16;;;16.01;41.85
53550;BME280;67273;52.914;-0.982;2023-02-26T05:51:58;102325.31;;;16.00;41.81
53550;BME280;67273;52.914;-0.982;2023-02-26T05:54:24;102327.00;;;16.01;42.00
53550;BME280;67273;52.914;-0.982;2023-02-26T05:56:50;102329.06;;;15.99;41.90
53550;BME280;67273;52.914;-0.982;2023-02-26T05:59:16;102328.19;;;15.99;41.98
53550;BME280;67273;52.914;-0.982;2023-02-26T06:01:42;102338.22;;;15.98;41.86
53550;BME280;67273;52.914;-0.982;2023-02-26T06:04:08;102340.91;;;15.98;41.85
53550;BME280;67273;52.914;-0.982;2023-02-26T06:06:35;102339.22;;;15.97;41.83
53550;BME280;67273;52.914;-0.982;2023-02-26T06:09:01;102345.69;;;15.96;41.97
53550;BME280;67273;52.914;-0.982;2023-02-26T06:11:27;102356.53;;;15.96;42.08
53550;BME280;67273;52.914;-0.982;2023-02-26T06:13:53;102352.97;;;15.95;41.68
53550;BME280;67273;52.914;-0.982;2023-02-26T06:16:19;102354.00;;;15.94;41.91
53550;BME280;67273;52.914;-0.982;2023-02-26T06:18:45;102362.97;;;15.95;41.80
53550;BME280;67273;52.914;-0.982;2023-02-26T06:21:11;102360.41;;;15.93;41.78
53550;BME280;67273;52.914;-0.982;2023-02-26T06:23:38;102368.38;;;15.95;41.93
53550;BME280;67273;52.914;-0.982;2023-02-26T06:26:04;102365.97;;;16.00;42.10
53550;BME280;67273;52.914;-0.982;2023-02-26T06:28:30;102363.22;;;16.08;41.66
53550;BME280;67273;52.914;-0.982;2023-02-26T06:30:56;102366.72;;;16.17;41.46
53550;BME280;67273;52.914;-0.982;2023-02-26T06:33:22;102369.56;;;16.24;41.63
53550;BME280;67273;52.914;-0.982;2023-02-26T06:35:48;102373.22;;;16.31;41.41
53550;BME280;67273;52.914;-0.982;2023-02-26T06:38:14;102369.78;;;16.37;41.38
53550;BME280;67273;52.914;-0.982;2023-02-26T06:40:41;102369.06;;;16.43;40.98
53550;BME280;67273;52.914;-0.982;2023-02-26T06:43:07;102366.25;;;16.51;40.84
53550;BME280;67273;52.914;-0.982;2023-02-26T06:45:33;102371.63;;;16.60;40.91
53550;BME280;67273;52.914;-0.982;2023-02-26T06:47:59;102371.75;;;16.66;40.58
53550;BME280;67273;52.914;-0.982;2023-02-26T06:50:25;102378.31;;;16.72;40.67
53550;BME280;67273;52.914;-0.982;2023-02-26T06:52:50;102381.31;;;16.77;40.73
53550;BME280;67273;52.914;-0.982;2023-02-26T06:55:16;102379.34;;;16.86;40.38
53550;BME280;67273;52.914;-0.982;2023-02-26T06:57:43;102386.78;;;16.92;40.25
53550;BME280;67273;52.914;-0.982;2023-02-26T07:00:10;102391.28;;;17.00;40.25
53550;BME280;67273;52.914;-0.982;2023-02-26T07:02:36;102395.97;;;17.06;40.10
53550;BME280;67273;52.914;-0.982;2023-02-26T07:05:01;102404.78;;;17.08;40.26
53550;BME280;67273;52.914;-0.982;2023-02-26T07:07:27;102406.25;;;17.10;40.14
53550;BME280;67273;52.914;-0.982;2023-02-26T07:09:53;102414.22;;;17.12;40.00
53550;BME280;67273;52.914;-0.982;2023-02-26T07:12:19;102422.38;;;17.12;39.89
53550;BME280;67273;52.914;-0.982;2023-02-26T07:14:46;102418.63;;;17.13;39.97
53550;BME280;67273;52.914;-0.982;2023-02-26T07:17:12;102423.25;;;17.13;40.18
53550;BME280;67273;52.914;-0.982;2023-02-26T07:19:45;102425.97;;;17.13;40.12
53550;BME280;67273;52.914;-0.982;2023-02-26T07:22:11;102435.94;;;17.12;40.16
53550;BME280;67273;52.914;-0.982;2023-02-26T07:24:36;102423.41;;;17.11;39.99
53550;BME280;67273;52.914;-0.982;2023-02-26T07:27:03;102432.41;;;17.12;40.14
53550;BME280;67273;52.914;-0.982;2023-02-26T07:29:29;102431.16;;;17.14;39.90
53550;BME280;67273;52.914;-0.982;2023-02-26T07:31:56;102435.13;;;17.12;40.05
53550;BME280;67273;52.914;-0.982;2023-02-26T07:34:22;102428.84;;;17.11;40.12
53550;BME280;67273;52.914;-0.982;2023-02-26T07:36:48;102440.56;;;17.12;40.28
53550;BME280;67273;52.914;-0.982;2023-02-26T07:39:13;102443.44;;;17.10;40.13
53550;BME280;67273;52.914;-0.982;2023-02-26T07:41:39;102454.31;;;17.10;40.06
53550;BME280;67273;52.914;-0.982;2023-02-26T07:44:13;102459.75;;;17.10;40.01
53550;BME280;67273;52.914;-0.982;2023-02-26T07:46:38;102458.91;;;17.09;40.25
53550;BME280;67273;52.914;-0.982;2023-02-26T07:49:05;102462.63;;;17.08;40.33
53550;BME280;67273;52.914;-0.982;2023-02-26T07:51:31;102458.06;;;17.09;40.29
53550;BME280;67273;52.914;-0.982;2023-02-26T07:53:57;102456.38;;;17.08;40.13
53550;BME280;67273;52.914;-0.982;2023-02-26T07:56:23;102461.16;;;17.06;40.33
53550;BME280;67273;52.914;-0.982;2023-02-26T07:58:48;102453.66;;;17.08;40.10
53550;BME280;67273;52.914;-0.982;2023-02-26T08:01:14;102467.59;;;17.05;40.48
53550;BME280;67273;52.914;-0.982;2023-02-26T08:03:40;102459.44;;;17.05;40.31
53550;BME280;67273;52.914;-0.982;2023-02-26T08:06:07;102456.56;;;17.06;40.24
53550;BME280;67273;52.914;-0.982;2023-02-26T08:08:33;102455.72;;;17.06;40.29
53550;BME280;67273;52.914;-0.982;2023-02-26T08:10:59;102462.16;;;17.05;40.28
53550;BME280;67273;52.914;-0.982;2023-02-26T08:13:25;102468.63;;;17.04;40.16
53550;BME280;67273;52.914;-0.982;2023-02-26T08:15:51;102471.34;;;17.04;40.22
53550;BME280;67273;52.914;-0.982;2023-02-26T08:18:16;102471.34;;;17.04;40.22
53550;BME280;67273;52.914;-0.982;2023-02-26T08:20:42;102479.69;;;17.02;40.10
53550;BME280;67273;52.914;-0.982;2023-02-26T08:23:09;102480.50;;;17.03;40.07
53550;BME280;67273;52.914;-0.982;2023-02-26T08:25:35;102472.56;;;17.01;40.27
53550;BME280;67273;52.914;-0.982;2023-02-26T08:28:01;102481.91;;;16.99;40.24
53550;BME280;67273;52.914;-0.982;2023-02-26T08:30:27;102486.31;;;17.00;40.34
53550;BME280;67273;52.914;-0.982;2023-02-26T08:32:53;102486.31;;;17.00;40.16
53550;BME280;67273;52.914;-0.982;2023-02-26T08:35:19;102489.19;;;16.98;40.25
53550;BME280;67273;52.914;-0.982;2023-02-26T08:37:45;102497.16;;;17.00;40.42
53550;BME280;67273;52.914;-0.982;2023-02-26T08:40:13;102502.13;;;16.96;40.29
53550;BME280;67273;52.914;-0.982;2023-02-26T08:42:39;102515.88;;;16.95;40.44
53550;BME280;67273;52.914;-0.982;2023-02-26T08:45:05;102506.72;;;16.96;40.39
53550;BME280;67273;52.914;-0.982;2023-02-26T08:47:32;102504.19;;;16.94;40.32
53550;BME280;67273;52.914;-0.982;2023-02-26T08:49:58;102514.22;;;16.94;40.25
53550;BME280;67273;52.914;-0.982;2023-02-26T08:52:24;102513.38;;;16.93;40.31
53550;BME280;67273;52.914;-0.982;2023-02-26T08:54:50;102518.81;;;16.93;40.46
53550;BME280;67273;52.914;-0.982;2023-02-26T08:57:17;102526.25;;;16.91;40.50
53550;BME280;67273;52.914;-0.982;2023-02-26T08:59:43;102524.59;;;16.90;40.35
53550;BME280;67273;52.914;-0.982;2023-02-26T09:02:09;102519.16;;;16.90;40.26
53550;BME280;67273;52.914;-0.982;2023-02-26T09:07:38;102536.63;;;16.87;40.34
53550;BME280;67273;52.914;-0.982;2023-02-26T09:10:04;102543.09;;;16.86;40.37
53550;BME280;67273;52.914;-0.982;2023-02-26T09:12:32;102544.13;;;16.85;40.48
53550;BME280;67273;52.914;-0.982;2023-02-26T09:15:00;102543.28;;;16.85;40.48
53550;BME280;67273;52.914;-0.982;2023-02-26T09:17:26;102545.16;;;16.84;40.20
53550;BME280;67273;52.914;-0.982;2023-02-26T09:19:52;102548.91;;;16.83;40.36
53550;BME280;67273;52.914;-0.982;2023-02-26T09:22:18;102558.03;;;16.82;40.34
53550;BME280;67273;52.914;-0.982;2023-02-26T09:24:43;102559.06;;;16.81;40.22
53550;BME280;67273;52.914;-0.982;2023-02-26T09:27:09;102554.47;;;16.82;40.34
53550;BME280;67273;52.914;-0.982;2023-02-26T09:29:36;102551.94;;;16.80;40.59
53550;BME280;67273;52.914;-0.982;2023-02-26T09:32:02;102561.94;;;16.80;40.31
53550;BME280;67273;52.914;-0.982;2023-02-26T09:34:32;102571.09;;;16.79;40.57
53550;BME280;67273;52.914;-0.982;2023-02-26T09:36:58;102568.38;;;16.79;40.60
53550;BME280;67273;52.914;-0.982;2023-02-26T09:39:24;102570.28;;;16.78;40.62
53550;BME280;67273;52.914;-0.982;2023-02-26T09:41:52;102581.13;;;16.78;40.48
53550;BME280;67273;52.914;-0.982;2023-02-26T09:44:20;102579.47;;;16.77;40.38
53550;BME280;67273;52.914;-0.982;2023-02-26T09:46:54;102583.19;;;16.76;40.51
53550;BME280;67273;52.914;-0.982;2023-02-26T09:49:31;102579.81;;;16.74;40.42
53550;BME280;67273;52.914;-0.982;2023-02-26T09:52:01;102590.66;;;16.74;40.29
53550;BME280;67273;52.914;-0.982;2023-02-26T09:54:31;102591.69;;;16.73;40.59
53550;BME280;67273;52.914;-0.982;2023-02-26T09:56:59;102598.81;;;16.74;40.54
53550;BME280;67273;52.914;-0.982;2023-02-26T09:59:28;102590.84;;;16.72;40.56
53550;BME280;67273;52.914;-0.982;2023-02-26T10:02:00;102591.84;;;16.71;40.65
53550;BME280;67273;52.914;-0.982;2023-02-26T10:04:41;102591.00;;;16.71;40.48
53550;BME280;67273;52.914;-0.982;2023-02-26T10:07:16;102589.34;;;16.70;40.49
53550;BME280;67273;52.914;-0.982;2023-02-26T10:09:56;102592.06;;;16.70;40.71
53550;BME280;67273;52.914;-0.982;2023-02-26T10:12:24;102603.94;;;16.69;40.69
53550;BME280;67273;52.914;-0.982;2023-02-26T10:14:55;102600.38;;;16.68;40.40
53550;BME280;67273;52.914;-0.982;2023-02-26T10:17:29;102605.97;;;16.67;40.53
53550;BME280;67273;52.914;-0.982;2023-02-26T10:20:02;102611.59;;;16.65;40.76
53550;BME280;67273;52.914;-0.982;2023-02-26T10:22:33;102611.59;;;16.65;40.70
53550;BME280;67273;52.914;-0.982;2023-02-26T10:25:04;102612.59;;;16.64;40.55
53550;BME280;67273;52.914;-0.982;2023-02-26T10:27:39;102622.59;;;16.64;40.82
53550;BME280;67273;52.914;-0.982;2023-02-26T10:30:12;102625.50;;;16.62;40.66
53550;BME280;67273;52.914;-0.982;2023-02-26T10:32:50;102627.56;;;16.60;40.74
53550;BME280;67273;52.914;-0.982;2023-02-26T10:35:17;102629.25;;;16.61;40.86
53550;BME280;67273;52.914;-0.982;2023-02-26T10:37:49;102624.66;;;16.62;41.16
53550;BME280;67273;52.914;-0.982;2023-02-26T10:40:57;102621.03;;;16.69;41.55
53550;BME280;67273;52.914;-0.982;2023-02-26T10:43:28;102628.03;;;16.64;41.63
53550;BME280;67273;52.914;-0.982;2023-02-26T10:46:08;102621.28;;;16.60;41.47
53550;BME280;67273;52.914;-0.982;2023-02-26T10:48:51;102621.28;;;16.60;41.66
53550;BME280;67273;52.914;-0.982;2023-02-26T10:51:32;102628.56;;;16.59;41.75
53550;BME280;67273;52.914;-0.982;2023-02-26T10:54:03;102634.19;;;16.58;41.80
53550;BME280;67273;52.914;-0.982;2023-02-26T10:56:33;102635.88;;;16.59;41.32
53550;BME280;67273;52.914;-0.982;2023-02-26T10:58:59;102643.84;;;16.60;41.57
53550;BME280;67273;52.914;-0.982;2023-02-26T11:01:26;102644.66;;;16.61;41.33
53550;BME280;67273;52.914;-0.982;2023-02-26T11:03:55;102650.09;;;16.61;41.65
53550;BME280;67273;52.914;-0.982;2023-02-26T11:06:27;102644.66;;;16.61;41.23
53550;BME280;67273;52.914;-0.982;2023-02-26T11:08:55;102658.41;;;16.59;41.54
53550;BME280;67273;52.914;-0.982;2023-02-26T11:11:39;102663.84;;;16.59;41.24
53550;BME280;67273;52.914;-0.982;2023-02-26T11:14:05;102656.75;;;16.58;41.22
53550;BME280;67273;52.914;-0.982;2023-02-26T11:16:31;102661.31;;;16.58;41.28
53550;BME280;67273;52.914;-0.982;2023-02-26T11:18:58;102665.88;;;16.57;41.47
53550;BME280;67273;52.914;-0.982;2023-02-26T11:21:27;102670.47;;;16.57;41.50
53550;BME280;67273;52.914;-0.982;2023-02-26T11:23:58;102675.06;;;16.56;41.51
53550;BME280;67273;52.914;-0.982;2023-02-26T11:26:30;102675.91;;;16.57;41.32
53550;BME280;67273;52.914;-0.982;2023-02-26T11:28:58;102679.63;;;16.56;41.52
53550;BME280;67273;52.914;-0.982;2023-02-26T11:31:25;102687.75;;;16.56;41.58
53550;BME280;67273;52.914;-0.982;2023-02-26T11:33:52;102685.06;;;16.56;41.41
53550;BME280;67273;52.914;-0.982;2023-02-26T11:36:23;102677.94;;;16.54;41.25
53550;BME280;67273;52.914;-0.982;2023-02-26T11:38:53;102684.38;;;16.53;41.22
53550;BME280;67273;52.914;-0.982;2023-02-26T11:41:21;102685.44;;;16.52;41.41
53550;BME280;67273;52.914;-0.982;2023-02-26T11:43:58;102685.44;;;16.52;41.15
53550;BME280;67273;52.914;-0.982;2023-02-26T11:46:24;102687.28;;;16.52;41.47
53550;BME280;67273;52.914;-0.982;2023-02-26T11:48:52;102685.44;;;16.52;41.21
53550;BME280;67273;52.914;-0.982;2023-02-26T11:51:21;102694.56;;;16.51;41.21
53550;BME280;67273;52.914;-0.982;2023-02-26T11:53:51;102698.31;;;16.50;41.51
53550;BME280;67273;52.914;-0.982;2023-02-26T11:56:24;102697.13;;;16.53;41.75
53550;BME280;67273;52.914;-0.982;2023-02-26T11:58:52;102697.28;;;16.51;41.63
53550;BME280;67273;52.914;-0.982;2023-02-26T12:01:19;102694.56;;;16.51;41.57
53550;BME280;67273;52.914;-0.982;2023-02-26T12:06:00;102696.28;;;16.52;41.87
53550;BME280;67273;52.914;-0.982;2023-02-26T12:10:59;102687.44;;;16.59;41.23
53550;BME280;67273;52.914;-0.982;2023-02-26T12:13:33;102691.13;;;16.66;41.34
53550;BME280;67273;52.914;-0.982;2023-02-26T12:16:07;102695.00;;;16.71;41.19
53550;BME280;67273;52.914;-0.982;2023-02-26T12:18:44;102697.19;;;16.76;41.10
53550;BME280;67273;52.914;-0.982;2023-02-26T12:21:22;102699.19;;;16.82;41.14
53550;BME280;67273;52.914;-0.982;2023-02-26T12:26:48;102701.88;;;16.99;40.80
53550;BME280;67273;52.914;-0.982;2023-02-26T12:29:19;102696.75;;;17.04;40.48
53550;BME280;67273;52.914;-0.982;2023-02-26T12:32:06;102706.34;;;17.15;40.37
53550;BME280;67273;52.914;-0.982;2023-02-26T12:37:47;102706.91;;;17.33;40.28
53550;BME280;67273;52.914;-0.982;2023-02-26T12:40:33;102702.25;;;17.42;39.87
53550;BME280;67273;52.914;-0.982;2023-02-26T12:43:08;102693.00;;;17.51;39.85
53550;BME280;67273;52.914;-0.982;2023-02-26T12:45:44;102705.50;;;17.60;39.72
53550;BME280;67273;52.914;-0.982;2023-02-26T12:48:35;102695.59;;;17.67;39.53
53550;BME280;67273;52.914;-0.982;2023-02-26T12:51:07;102702.69;;;17.77;39.69
53550;BME280;67273;52.914;-0.982;2023-02-26T12:53:57;102704.31;;;17.86;39.31
53550;BME280;67273;52.914;-0.982;2023-02-26T13:02:52;102702.66;;;18.15;38.92
53550;BME280;67273;52.914;-0.982;2023-02-26T13:05:33;102702.97;;;18.20;39.07
53550;BME280;67273;52.914;-0.982;2023-02-26T13:08:12;102697.16;;;18.23;38.99
53550;BME280;67273;52.914;-0.982;2023-02-26T13:10:56;102704.91;;;18.26;38.85
53550;BME280;67273;52.914;-0.982;2023-02-26T13:13:47;102699.94;;;18.30;38.98
53550;BME280;67273;52.914;-0.982;2023-02-26T13:16:25;102701.66;;;18.31;39.01
53550;BME280;67273;52.914;-0.982;2023-02-26T13:19:00;102700.63;;;18.32;39.03
53550;BME280;67273;52.914;-0.982;2023-02-26T13:21:30;102698.09;;;18.30;39.09